sensor_id;sensor_type;location;lat;lon;timestamp;temperature;humidity
46181;DHT22;58963;50.438;30.594;2022-11-14T00:00:28;6.90;99.90
46181;DHT22;58963;50.438;30.594;2022-11-14T00:05:47;6.90;99.90
46181;DHT22;58963;50.438;30.594;2022-11-14T00:11:09;6.80;99.90
46181;DHT22;58963;50.438;30.594;2022-11-14T00:16:28;6.80;99.90
46181;DHT22;58963;50.438;30.594;2022-11-14T00:21:47;6.70;99.90
46181;DHT22;58963;50.438;30.594;2022-11-14T00:27:06;6.70;99.90
46181;DHT22;58963;50.438;30.594;2022-11-14T00:32:25;6.70;99.90
46181;DHT22;58963;50.438;30.594;2022-11-14T00:37:44;6.60;99.90
46181;DHT22;58963;50.438;30.594;2022-11-14T00:43:03;6.50;99.90
46181;DHT22;58963;50.438;30.594;2022-11-14T00:48:22;6.40;99.90
46181;DHT22;58963;50.438;30.594;2022-11-14T00:53:42;6.30;99.90
46181;DHT22;58963;50.438;30.594;2022-11-14T00:59:04;6.40;99.90
46181;DHT22;58963;50.438;30.594;2022-11-14T01:04:23;6.40;99.90
46181;DHT22;58963;50.438;30.594;2022-11-14T01:09:42;6.20;99.90
46181;DHT22;58963;50.438;30.594;2022-11-14T01:15:02;6.00;99.90
46181;DHT22;58963;50.438;30.594;2022-11-14T01:20:21;6.00;99.90
46181;DHT22;58963;50.438;30.594;2022-11-14T01:25:42;6.00;99.90
46181;DHT22;58963;50.438;30.594;2022-11-14T01:31:14;6.00;99.90
46181;DHT22;58963;50.438;30.594;2022-11-14T01:36:34;5.90;99.90
46181;DHT22;58963;50.438;30.594;2022-11-14T01:41:53;5.90;99.90
46181;DHT22;58963;50.438;30.594;2022-11-14T01:47:17;5.90;99.90
46181;DHT22;58963;50.438;30.594;2022-11-14T01:52:39;5.70;99.90
46181;DHT22;58963;50.438;30.594;2022-11-14T01:57:59;5.70;99.90
46181;DHT22;58963;50.438;30.594;2022-11-14T02:03:19;5.70;99.90
46181;DHT22;58963;50.438;30.594;2022-11-14T02:08:39;5.60;99.90
46181;DHT22;58963;50.438;30.594;2022-11-14T02:13:59;5.50;99.90
46181;DHT22;58963;50.438;30.594;2022-11-14T02:19:19;5.40;99.90
46181;DHT22;58963;50.438;30.594;2022-11-14T02:24:39;5.20;99.90
46181;DHT22;58963;50.438;30.594;2022-11-14T02:35:25;5.00;99.90
46181;DHT22;58963;50.438;30.594;2022-11-14T02:40:51;4.80;99.90
46181;DHT22;58963;50.438;30.594;2022-11-14T02:46:10;4.80;99.90
46181;DHT22;58963;50.438;30.594;2022-11-14T02:51:30;4.90;99.90
46181;DHT22;58963;50.438;30.594;2022-11-14T02:56:49;4.90;99.90
46181;DHT22;58963;50.438;30.594;2022-11-14T03:02:08;5.00;99.90
46181;DHT22;58963;50.438;30.594;2022-11-14T03:07:27;4.90;99.90
46181;DHT22;58963;50.438;30.594;2022-11-14T03:12:46;4.90;99.90
46181;DHT22;58963;50.438;30.594;2022-11-14T03:18:05;4.90;99.90
46181;DHT22;58963;50.438;30.594;2022-11-14T03:23:24;4.90;99.90
46181;DHT22;58963;50.438;30.594;2022-11-14T03:28:44;4.80;99.90
46181;DHT22;58963;50.438;30.594;2022-11-14T03:34:03;4.70;99.90
46181;DHT22;58963;50.438;30.594;2022-11-14T03:39:22;4.60;99.90
46181;DHT22;58963;50.438;30.594;2022-11-14T03:44:42;4.70;99.90
46181;DHT22;58963;50.438;30.594;2022-11-14T03:50:01;4.60;99.90
46181;DHT22;58963;50.438;30.594;2022-11-14T03:55:20;4.50;99.90
46181;DHT22;58963;50.438;30.594;2022-11-14T04:00:40;4.50;99.90
46181;DHT22;58963;50.438;30.594;2022-11-14T04:05:59;4.50;99.90
46181;DHT22;58963;50.438;30.594;2022-11-14T04:11:18;4.40;99.90
46181;DHT22;58963;50.438;30.594;2022-11-14T04:16:38;4.40;99.90
46181;DHT22;58963;50.438;30.594;2022-11-14T04:21:57;4.30;99.90
46181;DHT22;58963;50.438;30.594;2022-11-14T04:27:16;4.20;99.90
46181;DHT22;58963;50.438;30.594;2022-11-14T04:32:35;4.20;99.90
46181;DHT22;58963;50.438;30.594;2022-11-14T04:37:54;4.10;99.90
46181;DHT22;58963;50.438;30.594;2022-11-14T04:43:13;4.10;99.90
46181;DHT22;58963;50.438;30.594;2022-11-14T04:48:32;4.00;99.90
46181;DHT22;58963;50.438;30.594;2022-11-14T04:53:51;4.00;99.90
46181;DHT22;58963;50.438;30.594;2022-11-14T04:59:11;4.00;99.90
46181;DHT22;58963;50.438;30.594;2022-11-14T05:04:30;4.00;99.90
46181;DHT22;58963;50.438;30.594;2022-11-14T05:09:50;3.90;99.90
46181;DHT22;58963;50.438;30.594;2022-11-14T05:15:09;3.90;99.90
46181;DHT22;58963;50.438;30.594;2022-11-14T05:20:29;4.00;99.90
46181;DHT22;58963;50.438;30.594;2022-11-14T05:26:02;4.00;99.90
46181;DHT22;58963;50.438;30.594;2022-11-14T05:31:22;4.00;99.90
46181;DHT22;58963;50.438;30.594;2022-11-14T05:36:41;4.00;99.90
46181;DHT22;58963;50.438;30.594;2022-11-14T05:42:00;4.10;99.90
46181;DHT22;58963;50.438;30.594;2022-11-14T05:47:19;4.10;99.90
46181;DHT22;58963;50.438;30.594;2022-11-14T05:52:38;4.10;99.90
46181;DHT22;58963;50.438;30.594;2022-11-14T05:57:58;4.20;99.90
46181;DHT22;58963;50.438;30.594;2022-11-14T06:03:18;4.20;99.90
46181;DHT22;58963;50.438;30.594;2022-11-14T06:08:37;4.30;99.90
46181;DHT22;58963;50.438;30.594;2022-11-14T06:13:57;5.10;99.90
46181;DHT22;58963;50.438;30.594;2022-11-14T06:19:16;8.20;99.90
46181;DHT22;58963;50.438;30.594;2022-11-14T06:24:35;8.90;99.90
46181;DHT22;58963;50.438;30.594;2022-11-14T06:29:55;8.90;99.90
46181;DHT22;58963;50.438;30.594;2022-11-14T06:35:14;9.80;99.90
46181;DHT22;58963;50.438;30.594;2022-11-14T06:40:33;10.80;99.90
46181;DHT22;58963;50.438;30.594;2022-11-14T06:45:55;11.30;99.90
46181;DHT22;58963;50.438;30.594;2022-11-14T06:51:29;11.30;99.90
46181;DHT22;58963;50.438;30.594;2022-11-14T06:56:54;12.10;99.90
46181;DHT22;58963;50.438;30.594;2022-11-14T07:02:14;12.60;99.90
46181;DHT22;58963;50.438;30.594;2022-11-14T07:07:33;12.50;99.90
46181;DHT22;58963;50.438;30.594;2022-11-14T07:12:52;12.50;99.90
46181;DHT22;58963;50.438;30.594;2022-11-14T07:18:11;12.90;99.30
46181;DHT22;58963;50.438;30.594;2022-11-14T07:23:35;13.30;99.00
46181;DHT22;58963;50.438;30.594;2022-11-14T07:28:54;13.50;98.80
46181;DHT22;58963;50.438;30.594;2022-11-14T07:34:14;14.20;94.20
46181;DHT22;58963;50.438;30.594;2022-11-14T07:39:33;13.60;95.20
46181;DHT22;58963;50.438;30.594;2022-11-14T07:44:52;12.60;99.60
46181;DHT22;58963;50.438;30.594;2022-11-14T07:50:11;11.70;99.90
46181;DHT22;58963;50.438;30.594;2022-11-14T07:55:30;12.30;99.90
46181;DHT22;58963;50.438;30.594;2022-11-14T08:00:50;13.60;98.60
46181;DHT22;58963;50.438;30.594;2022-11-14T08:06:12;13.00;97.90
46181;DHT22;58963;50.438;30.594;2022-11-14T08:11:32;12.40;99.90
46181;DHT22;58963;50.438;30.594;2022-11-14T08:17:06;14.10;95.10
46181;DHT22;58963;50.438;30.594;2022-11-14T08:22:25;14.50;90.70
46181;DHT22;58963;50.438;30.594;2022-11-14T08:27:45;12.00;99.90
46181;DHT22;58963;50.438;30.594;2022-11-14T08:33:05;11.50;99.90
46181;DHT22;58963;50.438;30.594;2022-11-14T08:38:24;13.40;96.00
46181;DHT22;58963;50.438;30.594;2022-11-14T08:43:43;15.10;85.60
46181;DHT22;58963;50.438;30.594;2022-11-14T08:49:03;15.40;82.30
46181;DHT22;58963;50.438;30.594;2022-11-14T08:54:22;16.20;73.10
46181;DHT22;58963;50.438;30.594;2022-11-14T08:59:41;16.50;69.00
46181;DHT22;58963;50.438;30.594;2022-11-14T09:05:00;16.20;74.90
46181;DHT22;58963;50.438;30.594;2022-11-14T09:10:20;14.50;91.40
46181;DHT22;58963;50.438;30.594;2022-11-14T09:15:39;15.00;91.50
46181;DHT22;58963;50.438;30.594;2022-11-14T09:20:59;15.90;84.70
46181;DHT22;58963;50.438;30.594;2022-11-14T09:26:19;16.20;80.70
46181;DHT22;58963;50.438;30.594;2022-11-14T09:31:38;15.90;79.40
46181;DHT22;58963;50.438;30.594;2022-11-14T09:36:58;16.20;78.60
46181;DHT22;58963;50.438;30.594;2022-11-14T09:42:28;15.80;84.60
46181;DHT22;58963;50.438;30.594;2022-11-14T09:47:53;16.10;79.90
46181;DHT22;58963;50.438;30.594;2022-11-14T09:53:26;15.10;81.60
46181;DHT22;58963;50.438;30.594;2022-11-14T09:58:47;15.20;82.80
46181;DHT22;58963;50.438;30.594;2022-11-14T10:04:22;15.80;78.40
46181;DHT22;58963;50.438;30.594;2022-11-14T13:35:03;8.10;99.90
46181;DHT22;58963;50.438;30.594;2022-11-14T13:46:09;8.20;99.90
46181;DHT22;58963;50.438;30.594;2022-11-14T13:51:32;8.00;99.90
46181;DHT22;58963;50.438;30.594;2022-11-14T13:57:04;7.90;99.90
46181;DHT22;58963;50.438;30.594;2022-11-14T14:13:40;7.10;99.90
46181;DHT22;58963;50.438;30.594;2022-11-14T14:19:32;6.90;99.90
46181;DHT22;58963;50.438;30.594;2022-11-14T14:25:29;6.60;99.90
46181;DHT22;58963;50.438;30.594;2022-11-14T14:31:02;6.30;99.90
46181;DHT22;58963;50.438;30.594;2022-11-14T14:36:25;6.10;99.90
46181;DHT22;58963;50.438;30.594;2022-11-14T14:41:46;5.90;99.90
46181;DHT22;58963;50.438;30.594;2022-11-14T14:52:45;5.60;99.90
46181;DHT22;58963;50.438;30.594;2022-11-14T15:03:54;5.30;99.90
46181;DHT22;58963;50.438;30.594;2022-11-14T15:09:18;5.10;99.90
46181;DHT22;58963;50.438;30.594;2022-11-14T15:14:38;5.00;99.90
46181;DHT22;58963;50.438;30.594;2022-11-14T15:19:58;4.90;99.90
46181;DHT22;58963;50.438;30.594;2022-11-14T15:25:18;4.80;99.90
46181;DHT22;58963;50.438;30.594;2022-11-14T15:30:38;4.80;99.90
46181;DHT22;58963;50.438;30.594;2022-11-14T15:36:09;4.80;99.90
46181;DHT22;58963;50.438;30.594;2022-11-14T15:41:32;4.60;99.90
46181;DHT22;58963;50.438;30.594;2022-11-14T15:46:51;4.60;99.90
46181;DHT22;58963;50.438;30.594;2022-11-14T15:52:22;4.60;99.90
46181;DHT22;58963;50.438;30.594;2022-11-14T15:57:42;4.60;99.90
46181;DHT22;58963;50.438;30.594;2022-11-14T16:03:02;4.70;99.90
46181;DHT22;58963;50.438;30.594;2022-11-14T16:08:22;4.70;99.90
46181;DHT22;58963;50.438;30.594;2022-11-14T16:13:41;4.60;99.90
46181;DHT22;58963;50.438;30.594;2022-11-14T16:19:00;4.70;99.90
46181;DHT22;58963;50.438;30.594;2022-11-14T16:24:21;4.70;99.90
46181;DHT22;58963;50.438;30.594;2022-11-14T16:29:41;4.50;99.90
46181;DHT22;58963;50.438;30.594;2022-11-14T16:35:00;4.50;99.90
46181;DHT22;58963;50.438;30.594;2022-11-14T16:40:26;4.40;99.90
46181;DHT22;58963;50.438;30.594;2022-11-14T16:45:46;4.30;99.90
46181;DHT22;58963;50.438;30.594;2022-11-14T16:51:09;4.40;99.90
46181;DHT22;58963;50.438;30.594;2022-11-14T16:56:28;4.20;99.90
46181;DHT22;58963;50.438;30.594;2022-11-14T17:01:49;4.10;99.90
46181;DHT22;58963;50.438;30.594;2022-11-14T17:07:09;4.20;99.90
46181;DHT22;58963;50.438;30.594;2022-11-14T17:12:28;4.10;99.90
46181;DHT22;58963;50.438;30.594;2022-11-14T17:17:47;4.10;99.90
46181;DHT22;58963;50.438;30.594;2022-11-14T17:23:08;4.10;99.90
46181;DHT22;58963;50.438;30.594;2022-11-14T17:28:27;4.20;99.90
46181;DHT22;58963;50.438;30.594;2022-11-14T17:33:51;4.20;99.90
46181;DHT22;58963;50.438;30.594;2022-11-14T17:39:11;4.10;99.90
46181;DHT22;58963;50.438;30.594;2022-11-14T17:44:31;4.20;99.90
46181;DHT22;58963;50.438;30.594;2022-11-14T17:49:50;4.20;99.90
46181;DHT22;58963;50.438;30.594;2022-11-14T17:55:09;4.20;99.90
46181;DHT22;58963;50.438;30.594;2022-11-14T18:00:28;4.20;99.90
46181;DHT22;58963;50.438;30.594;2022-11-14T18:05:47;4.20;99.90
46181;DHT22;58963;50.438;30.594;2022-11-14T18:11:08;4.20;99.90
46181;DHT22;58963;50.438;30.594;2022-11-14T18:16:28;4.40;99.90
46181;DHT22;58963;50.438;30.594;2022-11-14T18:21:49;4.40;99.90
46181;DHT22;58963;50.438;30.594;2022-11-14T18:27:08;4.40;99.90
46181;DHT22;58963;50.438;30.594;2022-11-14T18:32:27;4.40;99.90
46181;DHT22;58963;50.438;30.594;2022-11-14T18:37:46;4.40;99.90
46181;DHT22;58963;50.438;30.594;2022-11-14T18:43:05;4.40;99.90
46181;DHT22;58963;50.438;30.594;2022-11-14T18:48:24;4.50;99.90
46181;DHT22;58963;50.438;30.594;2022-11-14T18:53:44;4.50;99.90
46181;DHT22;58963;50.438;30.594;2022-11-14T18:59:04;4.40;99.90
46181;DHT22;58963;50.438;30.594;2022-11-14T19:04:23;4.50;99.90
46181;DHT22;58963;50.438;30.594;2022-11-14T19:09:49;4.60;99.90
46181;DHT22;58963;50.438;30.594;2022-11-14T19:15:08;4.50;99.90
46181;DHT22;58963;50.438;30.594;2022-11-14T19:20:29;4.40;99.90
46181;DHT22;58963;50.438;30.594;2022-11-14T19:25:48;4.40;99.90
46181;DHT22;58963;50.438;30.594;2022-11-14T19:31:08;4.40;99.90
46181;DHT22;58963;50.438;30.594;2022-11-14T19:36:28;4.40;99.90
46181;DHT22;58963;50.438;30.594;2022-11-14T19:41:47;4.30;99.90
46181;DHT22;58963;50.438;30.594;2022-11-14T19:47:06;4.40;99.90
46181;DHT22;58963;50.438;30.594;2022-11-14T19:52:25;4.30;99.90
46181;DHT22;58963;50.438;30.594;2022-11-14T19:57:44;4.20;99.90
46181;DHT22;58963;50.438;30.594;2022-11-14T20:03:03;4.30;99.90
46181;DHT22;58963;50.438;30.594;2022-11-14T20:08:23;4.30;99.90
46181;DHT22;58963;50.438;30.594;2022-11-14T20:13:47;4.20;99.90
46181;DHT22;58963;50.438;30.594;2022-11-14T20:19:06;4.20;99.90
46181;DHT22;58963;50.438;30.594;2022-11-14T20:24:26;4.30;99.90
46181;DHT22;58963;50.438;30.594;2022-11-14T20:29:46;4.20;99.90
46181;DHT22;58963;50.438;30.594;2022-11-14T20:35:05;4.20;99.90
46181;DHT22;58963;50.438;30.594;2022-11-14T20:40:24;4.30;99.90
46181;DHT22;58963;50.438;30.594;2022-11-14T20:46:00;4.20;99.90
46181;DHT22;58963;50.438;30.594;2022-11-14T20:51:22;4.20;99.90
46181;DHT22;58963;50.438;30.594;2022-11-14T20:56:41;4.20;99.90
46181;DHT22;58963;50.438;30.594;2022-11-14T21:02:00;4.10;99.90
46181;DHT22;58963;50.438;30.594;2022-11-14T21:07:20;4.00;99.90
46181;DHT22;58963;50.438;30.594;2022-11-14T21:12:39;4.00;99.90
46181;DHT22;58963;50.438;30.594;2022-11-14T21:17:58;4.00;99.90
46181;DHT22;58963;50.438;30.594;2022-11-14T21:23:17;4.00;99.90
46181;DHT22;58963;50.438;30.594;2022-11-14T21:28:39;4.10;99.90
46181;DHT22;58963;50.438;30.594;2022-11-14T21:34:01;4.10;99.90
46181;DHT22;58963;50.438;30.594;2022-11-14T21:39:21;4.00;99.90
46181;DHT22;58963;50.438;30.594;2022-11-14T21:44:40;4.10;99.90
46181;DHT22;58963;50.438;30.594;2022-11-14T21:49:59;4.00;99.90
46181;DHT22;58963;50.438;30.594;2022-11-14T21:55:18;4.00;99.90
46181;DHT22;58963;50.438;30.594;2022-11-14T22:00:39;4.10;99.90
46181;DHT22;58963;50.438;30.594;2022-11-14T22:05:58;4.00;99.90
46181;DHT22;58963;50.438;30.594;2022-11-14T22:11:17;4.00;99.90
46181;DHT22;58963;50.438;30.594;2022-11-14T22:16:36;4.10;99.90
46181;DHT22;58963;50.438;30.594;2022-11-14T22:21:56;4.10;99.90
46181;DHT22;58963;50.438;30.594;2022-11-14T22:27:15;4.20;99.90
46181;DHT22;58963;50.438;30.594;2022-11-14T22:32:34;4.20;99.90
46181;DHT22;58963;50.438;30.594;2022-11-14T22:37:53;4.30;99.90
46181;DHT22;58963;50.438;30.594;2022-11-14T22:43:13;4.30;99.90
46181;DHT22;58963;50.438;30.594;2022-11-14T22:48:33;4.30;99.90
46181;DHT22;58963;50.438;30.594;2022-11-14T22:53:54;4.30;99.90
46181;DHT22;58963;50.438;30.594;2022-11-14T22:59:13;4.30;99.90
46181;DHT22;58963;50.438;30.594;2022-11-14T23:04:32;4.40;99.90
46181;DHT22;58963;50.438;30.594;2022-11-14T23:09:55;4.30;99.90
46181;DHT22;58963;50.438;30.594;2022-11-14T23:15:14;4.50;99.90
46181;DHT22;58963;50.438;30.594;2022-11-14T23:20:34;4.50;99.90
46181;DHT22;58963;50.438;30.594;2022-11-14T23:25:53;4.60;99.90
46181;DHT22;58963;50.438;30.594;2022-11-14T23:31:14;4.50;99.90
46181;DHT22;58963;50.438;30.594;2022-11-14T23:36:37;4.50;99.90
46181;DHT22;58963;50.438;30.594;2022-11-14T23:41:56;4.50;99.90
46181;DHT22;58963;50.438;30.594;2022-11-14T23:47:16;4.60;99.90
46181;DHT22;58963;50.438;30.594;2022-11-14T23:52:35;4.60;99.90
46181;DHT22;58963;50.438;30.594;2022-11-14T23:57:54;4.60;99.90
